Pagina principale
METAR-TAF:

METAR-TAF

Aeroporti :

Recife, Pernambuco, Brasile

Aeroporto di Recife-Guararapes-Gilberto Freyre

latitudine: 08-08S, longitudine: 034-55W, altezza: 19 m

Osservazione

Il bollettino è stato emesso 14 minuti fa, alle 06:00 UTC
Vento 3 kt da nord/nord-ovest
Temperature 25°C
Umidità 89%
Pressione 1011 hPa
Visibilità 10 km o più
Nuvoloso ad un'altezza di 2000 ft

METAR: SBRF 230600Z 33003KT 9999 BKN020 25/23 Q1011

Ora: 03:14 (06:14 UTC)

Previsione

Il bollettino è stato emesso 4 ore e 14 minuti fa, alle 02:00 UTC
Previsione valida dal 23 alle 06 UTC al 24 alle 06 UTC
Vento 4 kt da est/nord-est
Visibilità: 9000 m
Nubi sparse ad un'altezza di 2000 ft
Evoluzione graduale
dal 23 alle 12 UTC al 23 alle 13 UTC
Vento 8 kt da est
Evoluzione graduale
dal 24 alle 04 UTC al 24 alle 05 UTC
Vento 4 kt da est/nord-est

TAF: SBRF 230200Z 2306/2406 06004KT 9000 SCT020 TN25/2309Z TX29/2315Z BECMG 2312/2313 09008KT BECMG 2404/2405 07004KT RMK PEU

Osservazioni e previsioni meteorologiche di più di 4000 aeroporti (messaggi METAR e TAF).

Le stazioni disponibili sono rappresentate dai dischi gialli e rossi sulla carta.

Puntare il mouse per vedere il nome della stazione.

Clicca sopra per visualizzare le osservazioni e previsioni meteorologiche.

Per cambiare la mappa : fare clic sui pulsanti verdi con una croce nera per ingrandire, il pulsante verde con un trattino per diminuire, o sulla freccia verde per le mappe adiacenti.


METAR-TAF: